sensor_id;sensor_type;location;lat;lon;timestamp;P1;durP1;ratioP1;P2;durP2;ratioP2
32146;SDS011;32190;49.112;8.598;2022-07-29T00:01:42;1.10;;;0.90;;
32146;SDS011;32190;49.112;8.598;2022-07-29T00:07:33;0.63;;;0.63;;
32146;SDS011;32190;49.112;8.598;2022-07-29T00:13:23;0.50;;;0.50;;
32146;SDS011;32190;49.112;8.598;2022-07-29T00:19:14;1.50;;;0.90;;
32146;SDS011;32190;49.112;8.598;2022-07-29T00:25:05;0.90;;;0.90;;
32146;SDS011;32190;49.112;8.598;2022-07-29T00:30:57;0.85;;;0.80;;
32146;SDS011;32190;49.112;8.598;2022-07-29T00:36:48;1.25;;;1.05;;
32146;SDS011;32190;49.112;8.598;2022-07-29T00:42:45;0.90;;;0.90;;
32146;SDS011;32190;49.112;8.598;2022-07-29T00:48:36;0.73;;;0.73;;
32146;SDS011;32190;49.112;8.598;2022-07-29T00:54:28;1.13;;;0.60;;
32146;SDS011;32190;49.112;8.598;2022-07-29T01:00:20;0.63;;;0.63;;
32146;SDS011;32190;49.112;8.598;2022-07-29T01:06:15;0.63;;;0.63;;
32146;SDS011;32190;49.112;8.598;2022-07-29T01:12:07;1.08;;;0.52;;
32146;SDS011;32190;49.112;8.598;2022-07-29T01:18:07;0.90;;;0.90;;
32146;SDS011;32190;49.112;8.598;2022-07-29T01:30:29;0.70;;;0.70;;
32146;SDS011;32190;49.112;8.598;2022-07-29T01:36:23;1.17;;;0.75;;
32146;SDS011;32190;49.112;8.598;2022-07-29T01:42:32;0.73;;;0.73;;
32146;SDS011;32190;49.112;8.598;2022-07-29T01:48:55;1.08;;;1.00;;
32146;SDS011;32190;49.112;8.598;2022-07-29T01:54:54;2.20;;;0.82;;
32146;SDS011;32190;49.112;8.598;2022-07-29T02:00:47;1.13;;;0.77;;
32146;SDS011;32190;49.112;8.598;2022-07-29T02:06:39;0.57;;;0.57;;
32146;SDS011;32190;49.112;8.598;2022-07-29T02:12:32;2.03;;;0.90;;
32146;SDS011;32190;49.112;8.598;2022-07-29T02:18:23;0.70;;;0.70;;
32146;SDS011;32190;49.112;8.598;2022-07-29T02:24:17;1.02;;;1.02;;
32146;SDS011;32190;49.112;8.598;2022-07-29T02:30:08;0.80;;;0.80;;
32146;SDS011;32190;49.112;8.598;2022-07-29T02:36:00;0.80;;;0.80;;
32146;SDS011;32190;49.112;8.598;2022-07-29T02:41:58;0.82;;;0.65;;
32146;SDS011;32190;49.112;8.598;2022-07-29T02:47:53;0.52;;;0.45;;
32146;SDS011;32190;49.112;8.598;2022-07-29T02:53:48;0.68;;;0.68;;
32146;SDS011;32190;49.112;8.598;2022-07-29T02:59:42;0.75;;;0.70;;
32146;SDS011;32190;49.112;8.598;2022-07-29T03:05:35;2.15;;;0.70;;
32146;SDS011;32190;49.112;8.598;2022-07-29T03:11:26;1.95;;;0.80;;
32146;SDS011;32190;49.112;8.598;2022-07-29T03:17:17;0.68;;;0.68;;
32146;SDS011;32190;49.112;8.598;2022-07-29T03:23:08;0.77;;;0.65;;
32146;SDS011;32190;49.112;8.598;2022-07-29T03:28:59;0.73;;;0.73;;
32146;SDS011;32190;49.112;8.598;2022-07-29T03:34:49;0.77;;;0.70;;
32146;SDS011;32190;49.112;8.598;2022-07-29T03:40:51;3.42;;;0.60;;
32146;SDS011;32190;49.112;8.598;2022-07-29T03:46:44;0.80;;;0.80;;
32146;SDS011;32190;49.112;8.598;2022-07-29T03:52:38;1.00;;;1.00;;
32146;SDS011;32190;49.112;8.598;2022-07-29T03:58:29;1.02;;;0.80;;
32146;SDS011;32190;49.112;8.598;2022-07-29T04:04:21;1.20;;;1.15;;
32146;SDS011;32190;49.112;8.598;2022-07-29T04:10:12;0.90;;;0.90;;
32146;SDS011;32190;49.112;8.598;2022-07-29T04:16:02;0.70;;;0.70;;
32146;SDS011;32190;49.112;8.598;2022-07-29T04:21:53;1.10;;;1.10;;
32146;SDS011;32190;49.112;8.598;2022-07-29T04:27:44;0.88;;;0.88;;
32146;SDS011;32190;49.112;8.598;2022-07-29T04:33:52;0.60;;;0.60;;
32146;SDS011;32190;49.112;8.598;2022-07-29T04:39:43;0.90;;;0.90;;
32146;SDS011;32190;49.112;8.598;2022-07-29T04:45:33;0.77;;;0.70;;
32146;SDS011;32190;49.112;8.598;2022-07-29T04:51:24;0.80;;;0.80;;
32146;SDS011;32190;49.112;8.598;2022-07-29T04:57:15;1.00;;;0.85;;
32146;SDS011;32190;49.112;8.598;2022-07-29T05:03:06;0.75;;;0.75;;
32146;SDS011;32190;49.112;8.598;2022-07-29T05:08:56;0.70;;;0.70;;
32146;SDS011;32190;49.112;8.598;2022-07-29T05:14:47;1.02;;;1.00;;
32146;SDS011;32190;49.112;8.598;2022-07-29T05:20:37;1.35;;;0.80;;
32146;SDS011;32190;49.112;8.598;2022-07-29T05:26:28;0.63;;;0.63;;
32146;SDS011;32190;49.112;8.598;2022-07-29T05:32:18;0.80;;;0.75;;
32146;SDS011;32190;49.112;8.598;2022-07-29T05:38:09;2.58;;;0.50;;
32146;SDS011;32190;49.112;8.598;2022-07-29T05:43:59;0.80;;;0.80;;
32146;SDS011;32190;49.112;8.598;2022-07-29T05:49:50;0.88;;;0.75;;
32146;SDS011;32190;49.112;8.598;2022-07-29T05:55:41;0.70;;;0.70;;
32146;SDS011;32190;49.112;8.598;2022-07-29T06:01:31;0.82;;;0.82;;
32146;SDS011;32190;49.112;8.598;2022-07-29T06:07:22;0.90;;;0.90;;
32146;SDS011;32190;49.112;8.598;2022-07-29T06:13:13;0.68;;;0.68;;
32146;SDS011;32190;49.112;8.598;2022-07-29T06:19:05;1.20;;;1.10;;
32146;SDS011;32190;49.112;8.598;2022-07-29T06:24:56;0.82;;;0.82;;
32146;SDS011;32190;49.112;8.598;2022-07-29T06:30:47;1.10;;;1.10;;
32146;SDS011;32190;49.112;8.598;2022-07-29T06:36:37;2.42;;;1.08;;
32146;SDS011;32190;49.112;8.598;2022-07-29T06:42:28;1.52;;;1.02;;
32146;SDS011;32190;49.112;8.598;2022-07-29T06:48:19;2.42;;;1.02;;
32146;SDS011;32190;49.112;8.598;2022-07-29T06:54:09;0.93;;;0.93;;
32146;SDS011;32190;49.112;8.598;2022-07-29T07:00:00;0.77;;;0.77;;
32146;SDS011;32190;49.112;8.598;2022-07-29T07:05:51;2.83;;;0.85;;
32146;SDS011;32190;49.112;8.598;2022-07-29T07:11:42;1.10;;;1.00;;
32146;SDS011;32190;49.112;8.598;2022-07-29T07:17:33;1.17;;;1.17;;
32146;SDS011;32190;49.112;8.598;2022-07-29T07:23:24;1.05;;;1.05;;
32146;SDS011;32190;49.112;8.598;2022-07-29T07:29:15;1.00;;;1.00;;
32146;SDS011;32190;49.112;8.598;2022-07-29T07:35:06;3.70;;;1.33;;
32146;SDS011;32190;49.112;8.598;2022-07-29T07:40:58;0.82;;;0.82;;
32146;SDS011;32190;49.112;8.598;2022-07-29T07:46:49;1.23;;;1.10;;
32146;SDS011;32190;49.112;8.598;2022-07-29T07:52:46;1.95;;;1.08;;
32146;SDS011;32190;49.112;8.598;2022-07-29T07:58:38;0.95;;;0.82;;
32146;SDS011;32190;49.112;8.598;2022-07-29T08:04:29;2.08;;;0.95;;
32146;SDS011;32190;49.112;8.598;2022-07-29T08:10:19;1.73;;;1.30;;
32146;SDS011;32190;49.112;8.598;2022-07-29T08:16:28;1.35;;;1.05;;
32146;SDS011;32190;49.112;8.598;2022-07-29T08:22:19;1.88;;;1.00;;
32146;SDS011;32190;49.112;8.598;2022-07-29T08:28:09;1.65;;;1.30;;
32146;SDS011;32190;49.112;8.598;2022-07-29T08:34:00;3.83;;;1.25;;
32146;SDS011;32190;49.112;8.598;2022-07-29T08:39:52;1.58;;;1.20;;
32146;SDS011;32190;49.112;8.598;2022-07-29T08:45:44;1.90;;;1.02;;
32146;SDS011;32190;49.112;8.598;2022-07-29T08:51:38;0.87;;;0.87;;
32146;SDS011;32190;49.112;8.598;2022-07-29T08:57:30;1.10;;;1.00;;
32146;SDS011;32190;49.112;8.598;2022-07-29T09:03:24;2.58;;;1.40;;
32146;SDS011;32190;49.112;8.598;2022-07-29T09:09:17;0.98;;;0.98;;
32146;SDS011;32190;49.112;8.598;2022-07-29T09:15:07;2.15;;;1.48;;
32146;SDS011;32190;49.112;8.598;2022-07-29T09:20:58;1.27;;;0.93;;
32146;SDS011;32190;49.112;8.598;2022-07-29T09:27:09;1.50;;;1.40;;
32146;SDS011;32190;49.112;8.598;2022-07-29T09:33:11;1.77;;;1.30;;
32146;SDS011;32190;49.112;8.598;2022-07-29T09:39:02;1.15;;;1.05;;
32146;SDS011;32190;49.112;8.598;2022-07-29T09:44:53;1.02;;;0.90;;
32146;SDS011;32190;49.112;8.598;2022-07-29T09:50:44;1.13;;;0.73;;
32146;SDS011;32190;49.112;8.598;2022-07-29T09:56:40;0.80;;;0.80;;
32146;SDS011;32190;49.112;8.598;2022-07-29T10:02:32;1.10;;;0.98;;
32146;SDS011;32190;49.112;8.598;2022-07-29T10:08:27;0.80;;;0.80;;
32146;SDS011;32190;49.112;8.598;2022-07-29T10:14:17;0.63;;;0.63;;
32146;SDS011;32190;49.112;8.598;2022-07-29T10:20:08;4.15;;;1.48;;
32146;SDS011;32190;49.112;8.598;2022-07-29T10:25:59;1.00;;;0.90;;
32146;SDS011;32190;49.112;8.598;2022-07-29T10:44:26;0.75;;;0.75;;
32146;SDS011;32190;49.112;8.598;2022-07-29T10:50:17;0.98;;;0.88;;
32146;SDS011;32190;49.112;8.598;2022-07-29T10:56:19;3.58;;;1.20;;
32146;SDS011;32190;49.112;8.598;2022-07-29T11:08:25;0.70;;;0.70;;
32146;SDS011;32190;49.112;8.598;2022-07-29T11:14:16;0.82;;;0.77;;
32146;SDS011;32190;49.112;8.598;2022-07-29T11:26:36;3.15;;;1.00;;
32146;SDS011;32190;49.112;8.598;2022-07-29T11:32:35;1.55;;;1.25;;
32146;SDS011;32190;49.112;8.598;2022-07-29T11:38:27;1.23;;;0.90;;
32146;SDS011;32190;49.112;8.598;2022-07-29T11:44:18;2.20;;;0.75;;
32146;SDS011;32190;49.112;8.598;2022-07-29T11:50:47;0.80;;;0.80;;
32146;SDS011;32190;49.112;8.598;2022-07-29T11:56:38;3.90;;;1.48;;
32146;SDS011;32190;49.112;8.598;2022-07-29T12:02:40;1.27;;;0.97;;
32146;SDS011;32190;49.112;8.598;2022-07-29T12:08:38;0.55;;;0.55;;
32146;SDS011;32190;49.112;8.598;2022-07-29T12:14:32;0.80;;;0.80;;
32146;SDS011;32190;49.112;8.598;2022-07-29T12:20:24;0.80;;;0.80;;
32146;SDS011;32190;49.112;8.598;2022-07-29T12:26:17;1.00;;;0.82;;
32146;SDS011;32190;49.112;8.598;2022-07-29T12:32:07;0.63;;;0.63;;
32146;SDS011;32190;49.112;8.598;2022-07-29T12:38:00;1.00;;;0.90;;
32146;SDS011;32190;49.112;8.598;2022-07-29T12:43:54;1.67;;;0.90;;
32146;SDS011;32190;49.112;8.598;2022-07-29T12:49:45;0.93;;;0.70;;
32146;SDS011;32190;49.112;8.598;2022-07-29T13:01:35;0.63;;;0.63;;
32146;SDS011;32190;49.112;8.598;2022-07-29T13:07:27;1.88;;;0.85;;
32146;SDS011;32190;49.112;8.598;2022-07-29T13:13:19;0.60;;;0.60;;
32146;SDS011;32190;49.112;8.598;2022-07-29T13:19:11;0.65;;;0.65;;
32146;SDS011;32190;49.112;8.598;2022-07-29T13:25:02;0.63;;;0.63;;
32146;SDS011;32190;49.112;8.598;2022-07-29T13:30:53;0.75;;;0.75;;
32146;SDS011;32190;49.112;8.598;2022-07-29T13:36:43;0.95;;;0.95;;
32146;SDS011;32190;49.112;8.598;2022-07-29T13:42:34;0.70;;;0.70;;
32146;SDS011;32190;49.112;8.598;2022-07-29T13:48:25;3.78;;;0.60;;
32146;SDS011;32190;49.112;8.598;2022-07-29T13:54:15;0.70;;;0.70;;
32146;SDS011;32190;49.112;8.598;2022-07-29T14:00:06;0.95;;;0.65;;
32146;SDS011;32190;49.112;8.598;2022-07-29T14:05:57;0.65;;;0.57;;
32146;SDS011;32190;49.112;8.598;2022-07-29T14:11:49;0.50;;;0.50;;
32146;SDS011;32190;49.112;8.598;2022-07-29T14:17:41;1.00;;;0.60;;
32146;SDS011;32190;49.112;8.598;2022-07-29T14:23:31;0.80;;;0.80;;
32146;SDS011;32190;49.112;8.598;2022-07-29T14:29:22;0.65;;;0.65;;
32146;SDS011;32190;49.112;8.598;2022-07-29T14:35:13;1.17;;;0.55;;
32146;SDS011;32190;49.112;8.598;2022-07-29T14:41:03;1.20;;;0.73;;
32146;SDS011;32190;49.112;8.598;2022-07-29T14:46:54;0.85;;;0.50;;
32146;SDS011;32190;49.112;8.598;2022-07-29T14:52:45;3.05;;;1.27;;
32146;SDS011;32190;49.112;8.598;2022-07-29T14:58:36;0.40;;;0.40;;
32146;SDS011;32190;49.112;8.598;2022-07-29T15:04:26;0.60;;;0.40;;
32146;SDS011;32190;49.112;8.598;2022-07-29T15:10:17;0.40;;;0.40;;
32146;SDS011;32190;49.112;8.598;2022-07-29T15:16:07;0.40;;;0.40;;
32146;SDS011;32190;49.112;8.598;2022-07-29T15:21:59;0.60;;;0.60;;
32146;SDS011;32190;49.112;8.598;2022-07-29T15:27:50;0.30;;;0.30;;
32146;SDS011;32190;49.112;8.598;2022-07-29T15:33:40;0.52;;;0.35;;
32146;SDS011;32190;49.112;8.598;2022-07-29T15:39:31;0.65;;;0.60;;
32146;SDS011;32190;49.112;8.598;2022-07-29T15:45:22;0.68;;;0.30;;
32146;SDS011;32190;49.112;8.598;2022-07-29T15:51:12;0.68;;;0.50;;
32146;SDS011;32190;49.112;8.598;2022-07-29T15:57:03;0.43;;;0.43;;
32146;SDS011;32190;49.112;8.598;2022-07-29T16:02:55;0.40;;;0.40;;
32146;SDS011;32190;49.112;8.598;2022-07-29T16:08:45;0.73;;;0.73;;
32146;SDS011;32190;49.112;8.598;2022-07-29T16:14:36;0.40;;;0.30;;
32146;SDS011;32190;49.112;8.598;2022-07-29T16:20:26;0.45;;;0.45;;
32146;SDS011;32190;49.112;8.598;2022-07-29T16:26:17;1.98;;;0.60;;
32146;SDS011;32190;49.112;8.598;2022-07-29T16:32:07;2.13;;;0.35;;
32146;SDS011;32190;49.112;8.598;2022-07-29T16:37:58;0.43;;;0.38;;
32146;SDS011;32190;49.112;8.598;2022-07-29T16:43:48;1.52;;;0.40;;
32146;SDS011;32190;49.112;8.598;2022-07-29T16:49:39;0.30;;;0.30;;
32146;SDS011;32190;49.112;8.598;2022-07-29T16:55:30;1.65;;;0.30;;
32146;SDS011;32190;49.112;8.598;2022-07-29T17:01:20;0.30;;;0.30;;
32146;SDS011;32190;49.112;8.598;2022-07-29T17:07:11;0.30;;;0.30;;
32146;SDS011;32190;49.112;8.598;2022-07-29T17:13:01;0.47;;;0.47;;
32146;SDS011;32190;49.112;8.598;2022-07-29T17:18:53;0.30;;;0.30;;
32146;SDS011;32190;49.112;8.598;2022-07-29T17:24:44;0.40;;;0.40;;
32146;SDS011;32190;49.112;8.598;2022-07-29T17:30:36;0.47;;;0.40;;
32146;SDS011;32190;49.112;8.598;2022-07-29T17:36:26;0.73;;;0.70;;
32146;SDS011;32190;49.112;8.598;2022-07-29T17:42:18;0.30;;;0.30;;
32146;SDS011;32190;49.112;8.598;2022-07-29T17:48:08;0.50;;;0.50;;
32146;SDS011;32190;49.112;8.598;2022-07-29T17:53:59;0.90;;;0.55;;
32146;SDS011;32190;49.112;8.598;2022-07-29T17:59:49;0.40;;;0.40;;
32146;SDS011;32190;49.112;8.598;2022-07-29T18:05:40;0.40;;;0.40;;
32146;SDS011;32190;49.112;8.598;2022-07-29T18:11:31;0.77;;;0.50;;
32146;SDS011;32190;49.112;8.598;2022-07-29T18:17:21;0.32;;;0.32;;
32146;SDS011;32190;49.112;8.598;2022-07-29T18:23:13;0.50;;;0.40;;
32146;SDS011;32190;49.112;8.598;2022-07-29T18:29:04;0.93;;;0.40;;
32146;SDS011;32190;49.112;8.598;2022-07-29T18:34:55;0.20;;;0.20;;
32146;SDS011;32190;49.112;8.598;2022-07-29T18:40:45;0.52;;;0.35;;
32146;SDS011;32190;49.112;8.598;2022-07-29T18:46:36;0.30;;;0.30;;
32146;SDS011;32190;49.112;8.598;2022-07-29T18:52:27;0.40;;;0.40;;
32146;SDS011;32190;49.112;8.598;2022-07-29T18:58:18;0.32;;;0.32;;
32146;SDS011;32190;49.112;8.598;2022-07-29T19:04:08;0.40;;;0.40;;
32146;SDS011;32190;49.112;8.598;2022-07-29T19:09:59;0.28;;;0.28;;
32146;SDS011;32190;49.112;8.598;2022-07-29T19:15:50;0.43;;;0.43;;
32146;SDS011;32190;49.112;8.598;2022-07-29T19:21:40;1.02;;;0.40;;
32146;SDS011;32190;49.112;8.598;2022-07-29T19:27:31;0.52;;;0.50;;
32146;SDS011;32190;49.112;8.598;2022-07-29T19:33:21;0.50;;;0.40;;
32146;SDS011;32190;49.112;8.598;2022-07-29T19:39:12;1.70;;;0.47;;
32146;SDS011;32190;49.112;8.598;2022-07-29T19:45:04;0.50;;;0.50;;
32146;SDS011;32190;49.112;8.598;2022-07-29T19:50:55;0.88;;;0.43;;
32146;SDS011;32190;49.112;8.598;2022-07-29T19:56:46;0.68;;;0.68;;
32146;SDS011;32190;49.112;8.598;2022-07-29T20:02:36;0.68;;;0.40;;
32146;SDS011;32190;49.112;8.598;2022-07-29T20:08:28;0.55;;;0.50;;
32146;SDS011;32190;49.112;8.598;2022-07-29T20:14:18;0.45;;;0.45;;
32146;SDS011;32190;49.112;8.598;2022-07-29T20:20:09;0.60;;;0.60;;
32146;SDS011;32190;49.112;8.598;2022-07-29T20:26:00;0.50;;;0.50;;
32146;SDS011;32190;49.112;8.598;2022-07-29T20:31:51;0.65;;;0.60;;
32146;SDS011;32190;49.112;8.598;2022-07-29T20:37:41;0.38;;;0.38;;
32146;SDS011;32190;49.112;8.598;2022-07-29T20:43:32;0.50;;;0.50;;
32146;SDS011;32190;49.112;8.598;2022-07-29T20:49:23;0.57;;;0.35;;
32146;SDS011;32190;49.112;8.598;2022-07-29T20:55:14;0.80;;;0.40;;
32146;SDS011;32190;49.112;8.598;2022-07-29T21:01:05;0.30;;;0.28;;
32146;SDS011;32190;49.112;8.598;2022-07-29T21:06:56;0.45;;;0.45;;
32146;SDS011;32190;49.112;8.598;2022-07-29T21:12:47;0.45;;;0.45;;
32146;SDS011;32190;49.112;8.598;2022-07-29T21:18:41;0.85;;;0.32;;
32146;SDS011;32190;49.112;8.598;2022-07-29T21:24:35;0.65;;;0.50;;
32146;SDS011;32190;49.112;8.598;2022-07-29T21:30:25;0.30;;;0.30;;
32146;SDS011;32190;49.112;8.598;2022-07-29T21:36:16;0.77;;;0.75;;
32146;SDS011;32190;49.112;8.598;2022-07-29T21:42:07;0.77;;;0.60;;
32146;SDS011;32190;49.112;8.598;2022-07-29T21:47:57;0.50;;;0.50;;
32146;SDS011;32190;49.112;8.598;2022-07-29T21:53:48;0.82;;;0.50;;
32146;SDS011;32190;49.112;8.598;2022-07-29T21:59:39;1.20;;;0.57;;
32146;SDS011;32190;49.112;8.598;2022-07-29T22:05:30;0.55;;;0.55;;
32146;SDS011;32190;49.112;8.598;2022-07-29T22:11:21;0.50;;;0.50;;
32146;SDS011;32190;49.112;8.598;2022-07-29T22:17:11;0.70;;;0.70;;
32146;SDS011;32190;49.112;8.598;2022-07-29T22:23:02;1.65;;;0.38;;
32146;SDS011;32190;49.112;8.598;2022-07-29T22:28:52;0.75;;;0.50;;
32146;SDS011;32190;49.112;8.598;2022-07-29T22:34:43;1.42;;;0.40;;
32146;SDS011;32190;49.112;8.598;2022-07-29T22:40:33;1.58;;;0.73;;
32146;SDS011;32190;49.112;8.598;2022-07-29T22:46:24;0.50;;;0.45;;
32146;SDS011;32190;49.112;8.598;2022-07-29T22:52:15;1.23;;;0.60;;
32146;SDS011;32190;49.112;8.598;2022-07-29T22:58:05;1.85;;;0.70;;
32146;SDS011;32190;49.112;8.598;2022-07-29T23:03:56;1.08;;;0.38;;
32146;SDS011;32190;49.112;8.598;2022-07-29T23:09:46;0.85;;;0.38;;
32146;SDS011;32190;49.112;8.598;2022-07-29T23:15:37;0.40;;;0.40;;
32146;SDS011;32190;49.112;8.598;2022-07-29T23:21:27;0.30;;;0.30;;
32146;SDS011;32190;49.112;8.598;2022-07-29T23:27:18;0.40;;;0.40;;
32146;SDS011;32190;49.112;8.598;2022-07-29T23:33:08;0.60;;;0.60;;
32146;SDS011;32190;49.112;8.598;2022-07-29T23:38:59;0.40;;;0.40;;
32146;SDS011;32190;49.112;8.598;2022-07-29T23:44:50;0.40;;;0.40;;
32146;SDS011;32190;49.112;8.598;2022-07-29T23:50:40;0.60;;;0.60;;
32146;SDS011;32190;49.112;8.598;2022-07-29T23:56:31;0.43;;;0.43;;
